Time;durP1;ratioP1;P1;durP2;ratioP2;P2;SDS_P1;SDS_P2;PMS_P1;PMS_P2;Temp;Humidity;BMP_temperature;BMP_pressure;BME280_temperature;BME280_humidity;BME280_pressure;Samples;Min_cycle;Max_cycle;Signal;HPM_P1;HPM_P2
2021/04/27 00:01:40;;;;;;;15.32;12.13;;;;;;;12.90;100.00;100718.63;5042849;28;20032;-74
2021/04/27 00:04:26;;;;;;;17.45;12.82;;;;;;;12.90;100.00;100723.03;5056898;28;20090;-73
2021/04/27 00:07:12;;;;;;;17.13;11.85;;;;;;;12.96;100.00;100721.09;5056176;28;20041;-74
2021/04/27 00:09:57;;;;;;;17.55;12.02;;;;;;;12.66;100.00;100719.25;5057628;28;20124;-73
2021/04/27 00:12:44;;;;;;;17.92;11.90;;;;;;;12.88;100.00;100717.81;5055634;28;20040;-72
2021/04/27 00:15:31;;;;;;;25.33;12.27;;;;;;;12.96;100.00;100718.47;5055974;28;20021;-73
2021/04/27 00:18:17;;;;;;;16.77;11.88;;;;;;;13.04;100.00;100724.41;5042189;28;20021;-74
2021/04/27 00:21:03;;;;;;;18.33;12.10;;;;;;;12.80;100.00;100722.41;5056125;28;20035;-73
2021/04/27 00:23:49;;;;;;;15.68;10.95;;;;;;;12.91;100.00;100714.25;5056327;28;20025;-73
2021/04/27 00:26:35;;;;;;;15.13;11.63;;;;;;;12.82;100.00;100712.72;5055682;28;20425;-73
2021/04/27 00:29:21;;;;;;;16.60;11.43;;;;;;;12.92;100.00;100721.22;5055555;28;20397;-73
2021/04/27 00:32:07;;;;;;;16.13;11.85;;;;;;;12.63;100.00;100721.13;5055545;28;20033;-74
2021/04/27 00:34:53;;;;;;;16.33;11.57;;;;;;;12.64;100.00;100730.72;5055698;28;20025;-73
2021/04/27 00:37:39;;;;;;;16.30;11.70;;;;;;;12.56;100.00;100730.94;5055527;28;20025;-73
2021/04/27 00:40:27;;;;;;;17.05;12.48;;;;;;;12.27;100.00;100736.06;5055837;28;20386;-73
2021/04/27 00:43:12;;;;;;;14.30;11.50;;;;;;;12.39;100.00;100727.88;5055750;28;20518;-75
2021/04/27 00:45:58;;;;;;;17.25;12.10;;;;;;;12.11;100.00;100724.19;5056248;28;20339;-74
2021/04/27 00:48:44;;;;;;;16.65;11.65;;;;;;;12.74;100.00;100726.97;5041693;28;20036;-74
2021/04/27 00:51:32;;;;;;;14.65;11.82;;;;;;;12.44;100.00;100743.50;5042227;28;20032;-73
2021/04/27 00:54:18;;;;;;;17.60;11.18;;;;;;;12.19;100.00;100743.25;5054823;28;20076;-73
2021/04/27 00:57:04;;;;;;;16.77;11.05;;;;;;;12.38;100.00;100739.25;5056095;28;20025;-74
2021/04/27 00:59:52;;;;;;;16.00;11.45;;;;;;;12.08;100.00;100731.25;5055028;28;20025;-74
2021/04/27 01:02:38;;;;;;;14.65;11.98;;;;;;;12.22;100.00;100732.66;5055407;28;20025;-73
2021/04/27 01:05:29;;;;;;;17.42;11.25;;;;;;;11.92;100.00;100735.13;5054195;28;20484;-73
2021/04/27 01:09:00;;;;;;;18.38;11.63;;;;;;;12.37;100.00;100745.41;5054414;28;20029;-74
2021/04/27 01:12:02;;;;;;;13.20;10.88;;;;;;;12.42;100.00;100748.78;4961554;28;20018;-74
2021/04/27 01:15:00;;;;;;;13.38;10.80;;;;;;;12.30;100.00;100754.34;4975645;28;20353;-74
2021/04/27 01:17:48;;;;;;;15.82;11.02;;;;;;;12.26;100.00;100759.72;5040660;28;20040;-74
2021/04/27 01:20:39;;;;;;;14.88;11.20;;;;;;;12.84;100.00;100762.63;5054743;28;20417;-74
2021/04/27 02:46:30;;;;;;;18.27;12.30;;;;;;;12.74;100.00;100767.25;5644728;22;20049;-74
2021/04/27 02:49:16;;;;;;;17.42;12.18;;;;;;;12.49;100.00;100754.75;5052728;28;20037;-73
2021/04/27 02:52:02;;;;;;;16.23;12.15;;;;;;;12.45;100.00;100748.72;5053753;28;20449;-74
2021/04/27 02:54:48;;;;;;;14.73;11.90;;;;;;;12.25;100.00;100740.47;5053074;28;20021;-74
2021/04/27 02:57:34;;;;;;;17.75;12.52;;;;;;;12.60;100.00;100743.09;5040518;28;20028;-74
2021/04/27 03:00:20;;;;;;;16.80;12.38;;;;;;;12.25;100.00;100735.22;5053136;28;20373;-73
2021/04/27 03:03:07;;;;;;;14.30;11.30;;;;;;;12.26;100.00;100730.81;5052431;28;20339;-73
2021/04/27 03:05:53;;;;;;;16.65;11.73;;;;;;;12.74;100.00;100734.88;5052970;28;20108;-74
2021/04/27 03:08:39;;;;;;;18.05;12.38;;;;;;;12.47;100.00;100719.78;5053311;28;20076;-73
2021/04/27 03:11:25;;;;;;;14.80;11.13;;;;;;;12.32;100.00;100726.28;5052301;28;20450;-74
2021/04/27 03:14:11;;;;;;;19.83;11.98;;;;;;;12.37;100.00;100728.78;5039082;28;20061;-74
2021/04/27 03:16:57;;;;;;;18.58;13.05;;;;;;;12.54;100.00;100727.47;5039137;28;20111;-74
2021/04/27 03:19:43;;;;;;;22.67;13.82;;;;;;;12.49;100.00;100726.72;5053742;28;20087;-74
2021/04/27 03:22:29;;;;;;;22.52;13.60;;;;;;;12.61;100.00;100729.03;5052479;28;20029;-74
2021/04/27 03:25:15;;;;;;;17.20;13.27;;;;;;;12.50;100.00;100722.34;5039580;28;20017;-73
2021/04/27 03:28:00;;;;;;;17.80;11.73;;;;;;;12.60;100.00;100721.19;5053973;28;20043;-74
2021/04/27 03:30:47;;;;;;;19.27;12.45;;;;;;;12.56;100.00;100730.06;5056398;28;20025;-75
2021/04/27 03:33:34;;;;;;;16.65;11.90;;;;;;;12.52;100.00;100726.66;5057570;28;20036;-74
2021/04/27 03:36:20;;;;;;;20.13;12.93;;;;;;;12.58;100.00;100734.38;5056054;28;20024;-74
2021/04/27 03:39:05;;;;;;;16.23;12.82;;;;;;;12.58;100.00;100744.88;5056653;28;20146;-74
2021/04/27 03:41:51;;;;;;;17.10;13.02;;;;;;;12.49;100.00;100750.38;5057154;28;20024;-74
2021/04/27 03:44:37;;;;;;;16.92;12.15;;;;;;;12.34;100.00;100747.28;5055650;28;20056;-73
2021/04/27 03:47:23;;;;;;;15.40;12.18;;;;;;;12.66;100.00;100758.69;5056465;28;20049;-74
2021/04/27 03:50:19;;;;;;;16.27;12.30;;;;;;;12.87;100.00;100762.56;5057119;28;20028;-74
2021/04/27 03:53:05;;;;;;;20.38;13.05;;;;;;;12.96;100.00;100771.06;5043039;28;20112;-73
2021/04/27 03:55:51;;;;;;;22.08;14.35;;;;;;;13.06;100.00;100775.19;5057478;28;20040;-74
2021/04/27 03:58:37;;;;;;;18.30;12.77;;;;;;;13.21;100.00;100769.53;5057093;28;20058;-75
2021/04/27 04:01:23;;;;;;;17.85;13.40;;;;;;;13.02;100.00;100763.03;5056089;28;20025;-74
2021/04/27 04:04:08;;;;;;;18.90;13.30;;;;;;;12.74;100.00;100767.25;5042358;28;20100;-75
2021/04/27 04:06:54;;;;;;;18.50;13.25;;;;;;;12.77;100.00;100775.06;5055922;28;20036;-75
2021/04/27 04:09:40;;;;;;;16.90;12.45;;;;;;;12.89;100.00;100782.66;5056705;28;20029;-75
2021/04/27 04:12:26;;;;;;;20.60;12.70;;;;;;;12.81;100.00;100781.97;5057160;28;20082;-75
2021/04/27 04:15:16;;;;;;;19.17;12.75;;;;;;;12.88;100.00;100777.41;5042202;28;20110;-74
2021/04/27 04:18:02;;;;;;;17.80;11.88;;;;;;;12.79;100.00;100788.19;5055194;28;20032;-74
2021/04/27 04:20:49;;;;;;;17.75;13.05;;;;;;;12.83;100.00;100777.53;5042581;28;20021;-75
2021/04/27 04:23:34;;;;;;;17.90;12.88;;;;;;;13.01;100.00;100784.13;5055910;28;20099;-75
2021/04/27 04:26:21;;;;;;;21.95;13.20;;;;;;;13.01;100.00;100778.84;5055626;28;20027;-74
2021/04/27 04:29:07;;;;;;;20.55;12.77;;;;;;;13.22;100.00;100781.78;5057145;28;20033;-75
2021/04/27 04:31:53;;;;;;;16.52;12.90;;;;;;;13.05;100.00;100791.03;5055999;28;20036;-74
2021/04/27 04:34:40;;;;;;;22.90;13.98;;;;;;;13.06;100.00;100790.97;5041999;28;20064;-75
2021/04/27 04:37:27;;;;;;;16.90;12.85;;;;;;;13.41;100.00;100780.38;5055503;28;20035;-73
2021/04/27 04:40:14;;;;;;;21.60;13.25;;;;;;;13.00;100.00;100785.03;5056688;28;20025;-75
2021/04/27 04:43:00;;;;;;;16.88;13.13;;;;;;;13.26;100.00;100779.94;5055448;28;20108;-74
2021/04/27 04:45:46;;;;;;;19.52;13.02;;;;;;;13.68;100.00;100787.50;5056882;28;20053;-74
2021/04/27 04:48:32;;;;;;;17.58;13.07;;;;;;;13.75;100.00;100781.13;5041685;28;20404;-75
2021/04/27 04:51:18;;;;;;;17.55;12.48;;;;;;;13.74;100.00;100787.31;5056687;28;20056;-75
2021/04/27 04:54:04;;;;;;;18.75;13.70;;;;;;;13.38;100.00;100790.13;5054997;28;20021;-74
2021/04/27 04:56:50;;;;;;;19.08;13.75;;;;;;;13.34;100.00;100783.22;5056296;28;20021;-74
2021/04/27 04:59:35;;;;;;;19.83;13.48;;;;;;;13.45;100.00;100794.31;5055751;28;20021;-74
2021/04/27 05:02:21;;;;;;;22.77;15.18;;;;;;;13.27;100.00;100802.72;5041389;28;20029;-75
2021/04/27 05:05:08;;;;;;;22.52;16.25;;;;;;;13.25;100.00;100799.25;5054860;28;20516;-75
2021/04/27 05:08:00;;;;;;;22.92;16.52;;;;;;;13.24;100.00;100801.03;5054687;28;20021;-75
2021/04/27 05:10:46;;;;;;;17.35;13.93;;;;;;;13.47;100.00;100810.94;5041457;28;20029;-75
2021/04/27 05:13:32;;;;;;;19.33;13.98;;;;;;;13.37;100.00;100819.97;5056035;28;20485;-74
2021/04/27 05:16:18;;;;;;;20.00;14.60;;;;;;;13.61;100.00;100820.16;5056111;28;20112;-75
2021/04/27 05:19:04;;;;;;;16.52;13.43;;;;;;;13.85;100.00;100814.19;5041100;28;20491;-74
2021/04/27 05:21:50;;;;;;;17.75;13.18;;;;;;;13.90;100.00;100814.91;5055307;28;20112;-74
2021/04/27 05:24:38;;;;;;;28.33;14.13;;;;;;;13.38;100.00;100821.72;5054840;28;20032;-74
2021/04/27 05:27:25;;;;;;;19.90;13.68;;;;;;;13.66;100.00;100825.28;5054799;28;20040;-74
2021/04/27 05:30:11;;;;;;;19.15;13.88;;;;;;;13.32;100.00;100825.38;5040796;28;20025;-73
2021/04/27 05:32:57;;;;;;;17.55;13.45;;;;;;;13.85;100.00;100829.13;5041016;28;20489;-74
2021/04/27 05:35:43;;;;;;;17.85;14.23;;;;;;;13.61;100.00;100822.81;5040698;28;20032;-74
2021/04/27 05:38:29;;;;;;;22.05;15.20;;;;;;;13.63;100.00;100828.03;5054856;28;20029;-73
2021/04/27 05:41:15;;;;;;;23.45;14.70;;;;;;;13.34;100.00;100834.06;5040844;28;20037;-74
2021/04/27 05:44:00;;;;;;;21.17;15.75;;;;;;;14.05;100.00;100826.78;5040661;28;20029;-73
2021/04/27 05:46:46;;;;;;;25.70;17.15;;;;;;;14.00;100.00;100826.94;5053954;28;20068;-73
2021/04/27 05:49:32;;;;;;;22.25;14.55;;;;;;;14.35;100.00;100836.44;5040615;28;20115;-75
2021/04/27 05:52:18;;;;;;;18.15;13.68;;;;;;;14.25;100.00;100838.47;5053832;28;20071;-75
2021/04/27 05:55:04;;;;;;;16.98;13.10;;;;;;;13.71;100.00;100847.09;5054464;28;20032;-73
2021/04/27 05:57:51;;;;;;;21.17;14.55;;;;;;;14.02;100.00;100851.44;5040826;28;20028;-74
2021/04/27 06:00:37;;;;;;;38.03;14.90;;;;;;;13.94;100.00;100842.91;5053708;28;20025;-73
2021/04/27 06:03:23;;;;;;;20.98;14.40;;;;;;;14.10;100.00;100844.16;5054015;28;20029;-74
2021/04/27 06:06:12;;;;;;;21.60;14.77;;;;;;;14.15;100.00;100834.34;5054071;28;20056;-74
2021/04/27 06:08:57;;;;;;;20.42;14.20;;;;;;;14.36;100.00;100840.78;5055027;28;20025;-74
2021/04/27 06:11:44;;;;;;;20.23;13.63;;;;;;;13.90;100.00;100841.25;5055330;28;20463;-73
2021/04/27 06:14:30;;;;;;;20.73;14.82;;;;;;;13.98;100.00;100846.28;5040288;28;20091;-73
2021/04/27 06:17:16;;;;;;;20.38;14.25;;;;;;;14.05;100.00;100840.81;5053802;28;20052;-73
2021/04/27 06:20:07;;;;;;;19.65;14.82;;;;;;;14.05;100.00;100843.44;5040525;28;20115;-73
2021/04/27 06:22:53;;;;;;;21.25;15.10;;;;;;;14.06;100.00;100837.25;5053506;28;20044;-73
2021/04/27 06:25:39;;;;;;;21.42;15.13;;;;;;;14.36;100.00;100838.16;5053814;28;20029;-72
2021/04/27 06:28:24;;;;;;;23.58;15.60;;;;;;;13.97;100.00;100847.22;5054237;28;20029;-73
2021/04/27 06:31:10;;;;;;;21.30;17.02;;;;;;;14.29;100.00;100844.50;5054559;28;20017;-73
2021/04/27 06:33:56;;;;;;;19.42;14.98;;;;;;;14.36;100.00;100839.00;5054215;28;20035;-74
2021/04/27 06:36:42;;;;;;;19.15;14.65;;;;;;;14.62;100.00;100825.88;5053276;28;20025;-73
2021/04/27 06:39:28;;;;;;;17.52;13.88;;;;;;;14.86;100.00;100818.09;5039462;28;20454;-74
2021/04/27 06:42:14;;;;;;;20.05;13.63;;;;;;;14.64;100.00;100824.03;5039377;28;20096;-73
2021/04/27 06:45:00;;;;;;;20.50;13.52;;;;;;;14.91;100.00;100824.06;5053682;28;20453;-73
2021/04/27 06:47:46;;;;;;;19.38;13.50;;;;;;;14.36;100.00;100815.28;5020011;28;20053;-74
2021/04/27 06:50:34;;;;;;;16.67;12.90;;;;;;;14.63;100.00;100813.56;5034113;28;20466;-73
2021/04/27 06:53:20;;;;;;;21.60;13.82;;;;;;;14.54;100.00;100808.56;5034958;28;20098;-73
2021/04/27 06:56:08;;;;;;;22.73;13.15;;;;;;;14.63;100.00;100811.78;5034178;28;20099;-74
2021/04/27 06:58:53;;;;;;;18.13;12.77;;;;;;;14.73;100.00;100815.84;5034410;28;20029;-73
2021/04/27 07:01:39;;;;;;;17.30;13.65;;;;;;;15.04;100.00;100814.81;5034104;28;20021;-74
2021/04/27 07:04:25;;;;;;;16.95;13.27;;;;;;;15.02;100.00;100814.84;5033080;28;20132;-73
2021/04/27 07:07:11;;;;;;;19.15;14.07;;;;;;;15.35;100.00;100819.00;5036593;28;20045;-75
2021/04/27 07:09:57;;;;;;;17.00;13.15;;;;;;;15.59;100.00;100836.59;5023361;28;20108;-73
2021/04/27 07:12:43;;;;;;;17.88;13.15;;;;;;;14.61;100.00;100831.19;5037589;28;20036;-74
2021/04/27 07:15:29;;;;;;;19.25;13.68;;;;;;;14.84;100.00;100833.97;5036615;28;20029;-74
2021/04/27 07:18:14;;;;;;;19.27;13.13;;;;;;;15.30;100.00;100839.38;5038446;28;20029;-74
2021/04/27 07:21:01;;;;;;;20.20;14.02;;;;;;;15.71;100.00;100844.09;5023462;28;20438;-73
2021/04/27 07:23:46;;;;;;;18.88;13.68;;;;;;;15.53;100.00;100843.91;5036969;28;20029;-73
2021/04/27 07:26:32;;;;;;;18.70;13.95;;;;;;;15.97;100.00;100824.63;5036467;28;20065;-74
2021/04/27 07:29:19;;;;;;;21.33;14.00;;;;;;;15.97;100.00;100832.56;5038168;28;20034;-75
2021/04/27 07:32:05;;;;;;;21.60;14.07;;;;;;;15.43;100.00;100826.66;5037842;28;20343;-73
2021/04/27 07:34:51;;;;;;;44.60;23.02;;;;;;;15.93;100.00;100820.38;5036739;28;20025;-75
2021/04/27 07:37:37;;;;;;;19.10;14.25;;;;;;;15.17;100.00;100832.81;5021992;28;20040;-74
2021/04/27 07:40:23;;;;;;;18.95;14.02;;;;;;;16.00;100.00;100840.38;5035987;28;20021;-74
2021/04/27 07:43:09;;;;;;;19.92;15.77;;;;;;;16.13;100.00;100833.72;5036025;28;20438;-75
2021/04/27 07:45:55;;;;;;;22.63;16.63;;;;;;;16.34;100.00;100846.09;5039737;28;20053;-74
2021/04/27 07:48:40;;;;;;;24.92;16.73;;;;;;;16.35;100.00;100842.56;5057225;28;20449;-76
2021/04/27 07:51:26;;;;;;;24.23;16.75;;;;;;;16.41;100.00;100847.63;5042566;28;20365;-74
2021/04/27 07:54:12;;;;;;;18.58;14.65;;;;;;;15.79;100.00;100855.25;5042519;28;20059;-74
2021/04/27 07:56:58;;;;;;;21.02;14.65;;;;;;;16.19;100.00;100836.97;5057104;28;20025;-75
2021/04/27 07:59:44;;;;;;;21.35;15.20;;;;;;;15.84;100.00;100855.09;5055909;28;20453;-74
2021/04/27 08:02:30;;;;;;;24.67;15.70;;;;;;;14.60;100.00;100854.06;5057208;28;20048;-73
2021/04/27 08:05:16;;;;;;;22.45;15.38;;;;;;;16.02;100.00;100857.91;5041339;28;20112;-74
2021/04/27 08:08:02;;;;;;;20.17;15.27;;;;;;;16.52;100.00;100861.28;5055986;28;20017;-74
2021/04/27 08:10:48;;;;;;;22.83;15.82;;;;;;;16.22;100.00;100871.25;5056185;28;20029;-74
2021/04/27 08:13:43;;;;;;;21.30;14.85;;;;;;;16.37;100.00;100869.78;5055864;28;20454;-74
2021/04/27 08:16:29;;;;;;;19.17;13.93;;;;;;;16.13;100.00;100865.44;5058205;28;20063;-74
2021/04/27 08:19:18;;;;;;;19.70;14.55;;;;;;;16.42;100.00;100870.50;5056202;28;20029;-74
2021/04/27 08:22:07;;;;;;;21.38;13.30;;;;;;;16.44;100.00;100855.44;5042836;28;20106;-75
2021/04/27 08:24:53;;;;;;;16.48;13.18;;;;;;;16.98;100.00;100861.16;5041366;28;20043;-74
2021/04/27 08:27:39;;;;;;;18.33;13.27;;;;;;;17.13;100.00;100857.88;5041941;28;20107;-72
2021/04/27 08:30:26;;;;;;;19.33;14.25;;;;;;;16.58;100.00;100850.47;5055721;28;20037;-74
2021/04/27 08:33:12;;;;;;;16.70;13.48;;;;;;;17.08;100.00;100865.16;5042465;28;20405;-74
2021/04/27 08:35:58;;;;;;;25.05;15.68;;;;;;;17.68;100.00;100868.72;5057028;28;20028;-73
2021/04/27 08:38:44;;;;;;;16.10;13.23;;;;;;;17.80;100.00;100876.13;5055304;28;20453;-73
2021/04/27 08:41:29;;;;;;;19.77;13.85;;;;;;;16.94;100.00;100884.25;5056786;28;20378;-72
2021/04/27 08:44:15;;;;;;;17.27;14.25;;;;;;;16.77;100.00;100883.19;5055266;28;20112;-73
2021/04/27 08:47:01;;;;;;;17.13;13.23;;;;;;;16.41;100.00;100897.88;5055590;28;20532;-73
2021/04/27 08:49:47;;;;;;;17.15;13.85;;;;;;;16.84;100.00;100882.03;5056402;28;20037;-74
2021/04/27 08:52:33;;;;;;;19.73;14.00;;;;;;;16.93;100.00;100879.03;5054953;28;20120;-74
2021/04/27 08:55:18;;;;;;;20.83;13.50;;;;;;;16.93;100.00;100881.66;5055445;28;20032;-73
2021/04/27 08:58:11;;;;;;;19.13;13.98;;;;;;;16.49;100.00;100882.56;5056326;28;20130;-74
2021/04/27 09:00:57;;;;;;;18.33;13.82;;;;;;;17.11;100.00;100892.34;5055037;28;20051;-73
2021/04/27 09:03:51;;;;;;;15.85;13.35;;;;;;;17.82;100.00;100884.00;5056009;28;20037;-74
2021/04/27 09:06:36;;;;;;;18.05;12.90;;;;;;;17.81;100.00;100874.34;5054957;28;20051;-73
2021/04/27 09:09:40;;;;;;;18.75;13.68;;;;;;;18.57;100.00;100873.41;5055183;28;20044;-73
2021/04/27 09:12:29;;;;;;;22.08;14.98;;;;;;;18.27;100.00;100876.63;5054603;28;20025;-73
2021/04/27 09:15:24;;;;;;;21.52;16.17;;;;;;;18.72;100.00;100871.81;5054806;28;20037;-72
2021/04/27 09:18:27;;;;;;;29.45;24.05;;;;;;;18.07;100.00;100880.19;5054651;28;20101;-72
2021/04/27 09:21:13;;;;;;;26.23;21.25;;;;;;;17.98;100.00;100880.63;5041350;28;20017;-73
2021/04/27 09:24:10;;;;;;;23.00;19.40;;;;;;;17.17;100.00;100878.88;5054647;28;20469;-73
2021/04/27 09:30:40;;;;;;;23.25;17.70;;;;;;;18.15;100.00;100861.28;5055318;28;20051;-73
2021/04/27 09:33:27;;;;;;;21.60;16.20;;;;;;;18.96;100.00;100860.88;5054515;28;20067;-73
2021/04/27 09:36:24;;;;;;;20.48;16.65;;;;;;;19.25;100.00;100861.25;5055554;28;20032;-74
2021/04/27 09:39:10;;;;;;;21.75;15.43;;;;;;;19.50;100.00;100867.91;5055841;28;20033;-73
2021/04/27 09:42:07;;;;;;;23.17;15.15;;;;;;;18.72;100.00;100853.25;5054551;28;20414;-73
2021/04/27 09:44:55;;;;;;;17.50;14.57;;;;;;;18.21;100.00;100853.88;5055675;28;20087;-75
2021/04/27 09:47:41;;;;;;;18.45;14.23;;;;;;;18.65;100.00;100843.88;5021701;28;20374;-75
2021/04/27 09:50:27;;;;;;;18.45;14.30;;;;;;;18.76;100.00;100846.84;5034473;28;20033;-74
2021/04/27 09:53:42;;;;;;;19.65;12.65;;;;;;;18.95;100.00;100842.34;5032802;28;20465;-75
2021/04/27 09:56:49;;;;;;;16.08;11.32;;;;;;;19.16;100.00;100843.94;5020869;28;20053;-74
2021/04/27 09:59:42;;;;;;;18.40;12.18;;;;;;;18.86;100.00;100837.50;5034574;28;20124;-73
2021/04/27 10:02:30;;;;;;;18.38;12.43;;;;;;;19.11;100.00;100838.88;5034467;28;20056;-74
2021/04/27 10:05:19;;;;;;;13.98;11.93;;;;;;;18.94;100.00;100840.66;5035581;28;20430;-74
2021/04/27 10:08:07;;;;;;;15.82;12.90;;;;;;;19.70;100.00;100846.44;5034805;28;20361;-75
2021/04/27 10:10:54;;;;;;;15.00;11.70;;;;;;;19.75;99.08;100856.81;5020991;28;20029;-75
2021/04/27 10:13:41;;;;;;;15.77;11.60;;;;;;;19.43;100.00;100852.31;5034097;28;20021;-75
2021/04/27 10:16:27;;;;;;;17.17;12.27;;;;;;;19.27;100.00;100848.72;5033739;28;20040;-75
2021/04/27 10:19:12;;;;;;;16.75;11.73;;;;;;;19.96;98.75;100845.03;5018239;28;20087;-74
2021/04/27 10:21:58;;;;;;;14.90;11.57;;;;;;;19.51;100.00;100848.34;5020390;28;20033;-74
2021/04/27 10:24:57;;;;;;;13.73;11.45;;;;;;;19.56;100.00;100851.63;5019493;28;20619;-74
2021/04/27 10:27:43;;;;;;;13.23;10.68;;;;;;;19.78;100.00;100849.56;5020501;28;20029;-73
2021/04/27 10:30:31;;;;;;;19.52;11.82;;;;;;;20.34;97.67;100842.06;5033755;28;20045;-72
2021/04/27 10:33:24;;;;;;;21.63;14.52;;;;;;;19.56;100.00;100845.47;5034371;28;20071;-73
2021/04/27 10:36:11;;;;;;;23.35;13.90;;;;;;;19.40;100.00;100844.53;5034523;28;20021;-73
2021/04/27 10:39:01;;;;;;;17.52;11.55;;;;;;;20.11;99.46;100836.28;5019922;28;20022;-74
2021/04/27 10:41:50;;;;;;;32.03;17.80;;;;;;;20.25;96.98;100831.91;5021440;28;20148;-74
2021/04/27 10:44:52;;;;;;;13.38;11.52;;;;;;;19.52;100.00;100831.44;5034363;28;20446;-74
2021/04/27 10:47:46;;;;;;;13.00;9.75;;;;;;;19.88;100.00;100826.84;5019826;28;20072;-75
2021/04/27 10:50:36;;;;;;;13.73;9.85;;;;;;;19.86;99.49;100827.88;5033569;28;20036;-73
2021/04/27 10:53:36;;;;;;;13.93;9.65;;;;;;;18.77;100.00;100827.34;5033340;28;20014;-75
2021/04/27 10:56:36;;;;;;;29.67;21.45;;;;;;;20.01;98.17;100825.25;5020304;28;20025;-74
2021/04/27 10:59:24;;;;;;;17.02;11.77;;;;;;;20.26;96.50;100823.00;5033496;28;20048;-74
2021/04/27 11:02:20;;;;;;;13.77;10.57;;;;;;;20.10;97.28;100815.94;5033150;28;20088;-75
2021/04/27 11:05:26;;;;;;;12.88;10.15;;;;;;;19.99;98.07;100818.28;5019434;28;20029;-76
2021/04/27 11:08:12;;;;;;;18.45;11.90;;;;;;;20.35;93.90;100811.84;5033394;28;20366;-76
2021/04/27 11:11:15;;;;;;;15.90;11.25;;;;;;;21.05;85.43;100803.38;5019660;28;20120;-75
2021/04/27 11:14:21;;;;;;;11.30;8.50;;;;;;;20.82;86.38;100809.13;5020227;28;20022;-73
2021/04/27 11:17:36;;;;;;;13.27;9.00;;;;;;;19.82;93.02;100803.25;5033340;28;20513;-73
2021/04/27 11:21:07;;;;;;;12.23;9.98;;;;;;;20.21;90.58;100803.75;5033683;28;20040;-74
2021/04/27 11:23:55;;;;;;;11.80;8.85;;;;;;;20.48;90.58;100802.22;4953931;29;20118;-74
2021/04/27 11:26:44;;;;;;;11.60;9.20;;;;;;;20.69;88.19;100787.66;4940220;29;20030;-74
2021/04/27 11:29:32;;;;;;;10.27;7.97;;;;;;;21.27;80.69;100788.66;5017006;28;20055;-73
2021/04/27 11:32:18;;;;;;;9.75;7.07;;;;;;;21.03;79.08;100783.94;5033748;28;20088;-74
2021/04/27 11:35:10;;;;;;;12.77;9.50;;;;;;;21.24;81.63;100780.84;5034194;28;20029;-74
2021/04/27 11:38:00;;;;;;;11.35;7.70;;;;;;;21.67;78.93;100779.97;5032758;28;20481;-74
2021/04/27 11:40:46;;;;;;;9.30;7.53;;;;;;;21.13;80.58;100774.47;5033695;28;20034;-74
2021/04/27 11:43:33;;;;;;;12.70;8.52;;;;;;;20.53;79.50;100789.50;5032503;28;20112;-74
2021/04/27 11:46:19;;;;;;;10.82;7.70;;;;;;;20.63;79.76;100772.06;5034194;28;20045;-73
2021/04/27 11:49:14;;;;;;;7.90;6.63;;;;;;;21.54;74.05;100776.31;5033143;28;20021;-74
2021/04/27 11:51:59;;;;;;;8.77;6.45;;;;;;;21.33;73.00;100772.28;5021836;28;20030;-74
2021/04/27 11:54:45;;;;;;;9.90;6.20;;;;;;;21.12;73.87;100762.94;5037271;28;20104;-74
2021/04/27 11:57:31;;;;;;;9.82;7.00;;;;;;;21.86;71.60;100764.53;5037941;28;20364;-74
2021/04/27 12:00:18;;;;;;;9.15;8.15;;;;;;;22.44;70.88;100759.84;5036691;28;20052;-75
2021/04/27 12:03:17;;;;;;;10.07;7.80;;;;;;;23.12;68.76;100764.13;5037636;28;20370;-75
2021/04/27 12:06:07;;;;;;;11.88;8.70;;;;;;;21.87;71.50;100757.41;5022918;28;20033;-75
2021/04/27 12:08:55;;;;;;;11.90;7.72;;;;;;;21.63;72.92;100751.75;5037065;28;20414;-75
2021/04/27 12:11:45;;;;;;;10.98;8.25;;;;;;;21.60;75.53;100751.06;5037166;28;20029;-73
2021/04/27 12:14:30;;;;;;;13.88;9.10;;;;;;;21.35;75.89;100758.88;5036546;28;20214;-73
2021/04/27 12:17:36;;;;;;;13.02;9.50;;;;;;;21.44;76.39;100759.19;5022290;28;20355;-74
2021/04/27 12:20:22;;;;;;;12.85;8.65;;;;;;;21.05;79.60;100744.75;5036653;28;20041;-73
2021/04/27 12:23:08;;;;;;;13.02;8.50;;;;;;;20.89;80.59;100754.56;5035573;28;20034;-75
2021/04/27 12:25:57;;;;;;;12.02;7.60;;;;;;;21.46;77.01;100746.59;5036458;28;20362;-73
2021/04/27 12:28:43;;;;;;;10.70;7.55;;;;;;;20.71;78.06;100745.84;5036285;28;20035;-73
2021/04/27 12:31:30;;;;;;;11.18;7.30;;;;;;;20.40;81.35;100753.00;5021021;28;20081;-73
2021/04/27 12:34:16;;;;;;;10.93;6.95;;;;;;;20.66;76.47;100736.41;5022140;28;20350;-73
2021/04/27 12:37:02;;;;;;;11.00;7.18;;;;;;;20.80;76.59;100739.97;5036541;28;20445;-74
2021/04/27 12:39:48;;;;;;;14.23;9.23;;;;;;;20.52;84.03;100729.22;5021302;28;20383;-72
2021/04/27 12:42:34;;;;;;;10.73;8.60;;;;;;;21.02;83.72;100731.59;5035838;28;20131;-73
2021/04/27 12:45:21;;;;;;;12.43;7.90;;;;;;;20.78;83.54;100717.88;5036583;28;20435;-73
2021/04/27 12:48:08;;;;;;;14.70;8.68;;;;;;;20.86;83.67;100720.97;5041051;28;20041;-73
2021/04/27 12:51:05;;;;;;;13.40;8.65;;;;;;;20.81;83.77;100716.88;5056470;28;20082;-73
2021/04/27 12:53:51;;;;;;;16.75;8.48;;;;;;;20.95;84.65;100714.28;5041110;28;20090;-73
2021/04/27 12:56:37;;;;;;;13.77;8.40;;;;;;;20.55;84.13;100704.22;5055920;28;20415;-72
2021/04/27 12:59:24;;;;;;;12.50;8.88;;;;;;;20.38;85.62;100710.53;5056671;28;20029;-73
2021/04/27 13:02:15;;;;;;;12.35;8.88;;;;;;;20.36;87.12;100707.09;5053468;28;20033;-73
2021/04/27 13:05:04;;;;;;;12.65;8.45;;;;;;;20.49;87.10;100710.75;5041053;28;20491;-73
2021/04/27 13:08:05;;;;;;;11.00;7.63;;;;;;;20.68;84.61;100708.75;5055991;28;20124;-73
2021/04/27 13:10:52;;;;;;;8.63;7.35;;;;;;;21.15;78.69;100698.81;5055763;28;20420;-73
2021/04/27 13:13:38;;;;;;;14.05;7.78;;;;;;;20.99;77.23;100706.00;5040036;28;20032;-73
2021/04/27 13:16:34;;;;;;;14.38;7.68;;;;;;;20.42;80.26;100708.56;5055814;28;20047;-73
2021/04/27 13:19:20;;;;;;;13.13;7.75;;;;;;;20.81;77.53;100707.06;5040598;28;20386;-73
2021/04/27 13:22:10;;;;;;;13.07;8.50;;;;;;;20.24;80.90;100707.81;5056391;28;20063;-73
2021/04/27 13:25:03;;;;;;;9.93;7.57;;;;;;;20.64;79.90;100701.00;5053564;28;20036;-74
2021/04/27 13:27:56;;;;;;;9.13;7.53;;;;;;;20.87;79.47;100701.38;5055991;28;20025;-73
2021/04/27 13:30:51;;;;;;;10.52;7.65;;;;;;;20.79;79.64;100698.31;5053876;28;20331;-73
2021/04/27 13:33:44;;;;;;;10.90;8.25;;;;;;;20.16;83.39;100696.75;5042198;28;20032;-72
2021/04/27 13:36:29;;;;;;;13.80;7.60;;;;;;;20.17;85.05;100700.28;5054910;28;20120;-73
2021/04/27 13:39:15;;;;;;;13.02;8.52;;;;;;;19.63;83.87;100692.66;5054117;28;20021;-73
2021/04/27 13:42:02;;;;;;;11.93;8.23;;;;;;;19.96;84.90;100699.63;5055446;28;20067;-73
2021/04/27 13:44:47;;;;;;;14.18;8.85;;;;;;;19.98;84.94;100703.09;5041103;28;20122;-74
2021/04/27 13:47:33;;;;;;;13.57;9.20;;;;;;;20.21;82.95;100705.31;5041286;28;20074;-74
2021/04/27 13:50:19;;;;;;;13.50;8.63;;;;;;;20.59;82.63;100714.63;5054699;28;20040;-74
2021/04/27 13:53:05;;;;;;;15.23;9.15;;;;;;;20.64;82.18;100711.66;5055301;28;20028;-77
2021/04/27 13:55:52;;;;;;;13.68;9.02;;;;;;;19.97;83.70;100711.97;5039421;28;20025;-73
2021/04/27 13:58:38;;;;;;;10.43;8.50;;;;;;;20.22;84.03;100706.19;5055073;28;20044;-73
2021/04/27 14:01:24;;;;;;;15.50;8.38;;;;;;;20.33;83.16;100699.28;5039530;28;20020;-73
2021/04/27 14:04:12;;;;;;;11.07;8.20;;;;;;;20.04;82.38;100696.53;5054066;28;20068;-75
2021/04/27 14:06:57;;;;;;;11.13;8.13;;;;;;;20.46;82.37;100694.13;5054645;28;20044;-74
2021/04/27 14:09:43;;;;;;;12.55;8.85;;;;;;;20.26;82.48;100694.41;5054478;28;20028;-73